sensor_id;sensor_type;location;lat;lon;timestamp;temperature;humidity
666;DHT22;315;48.738;9.126;2023-01-16T00:00:43;3.00;99.90
666;DHT22;315;48.738;9.126;2023-01-16T00:03:08;3.00;99.90
666;DHT22;315;48.738;9.126;2023-01-16T00:05:34;2.90;99.90
666;DHT22;315;48.738;9.126;2023-01-16T00:07:59;2.90;99.90
666;DHT22;315;48.738;9.126;2023-01-16T00:10:25;2.90;99.90
666;DHT22;315;48.738;9.126;2023-01-16T00:12:50;3.00;99.90
666;DHT22;315;48.738;9.126;2023-01-16T00:15:16;3.10;99.90
666;DHT22;315;48.738;9.126;2023-01-16T00:17:41;3.00;99.90
666;DHT22;315;48.738;9.126;2023-01-16T00:20:07;3.00;99.90
666;DHT22;315;48.738;9.126;2023-01-16T00:22:33;3.10;99.90
666;DHT22;315;48.738;9.126;2023-01-16T00:24:59;3.10;99.90
666;DHT22;315;48.738;9.126;2023-01-16T00:27:24;3.10;99.90
666;DHT22;315;48.738;9.126;2023-01-16T00:29:50;3.00;99.90
666;DHT22;315;48.738;9.126;2023-01-16T00:32:15;3.10;99.90
666;DHT22;315;48.738;9.126;2023-01-16T00:34:41;3.00;99.90
666;DHT22;315;48.738;9.126;2023-01-16T00:37:06;3.00;99.90
666;DHT22;315;48.738;9.126;2023-01-16T00:39:32;2.90;99.90
666;DHT22;315;48.738;9.126;2023-01-16T00:41:58;2.90;99.90
666;DHT22;315;48.738;9.126;2023-01-16T00:44:24;2.90;99.90
666;DHT22;315;48.738;9.126;2023-01-16T00:46:50;2.90;99.90
666;DHT22;315;48.738;9.126;2023-01-16T00:49:15;2.90;99.90
666;DHT22;315;48.738;9.126;2023-01-16T00:51:41;2.90;99.90
666;DHT22;315;48.738;9.126;2023-01-16T00:54:06;2.90;99.90
666;DHT22;315;48.738;9.126;2023-01-16T00:56:32;2.90;99.90
666;DHT22;315;48.738;9.126;2023-01-16T00:58:57;2.90;99.90
666;DHT22;315;48.738;9.126;2023-01-16T01:01:23;3.00;99.90
666;DHT22;315;48.738;9.126;2023-01-16T01:03:48;3.00;99.90
666;DHT22;315;48.738;9.126;2023-01-16T01:06:14;3.00;99.90
666;DHT22;315;48.738;9.126;2023-01-16T01:08:39;2.90;99.90
666;DHT22;315;48.738;9.126;2023-01-16T01:11:15;2.90;99.90
666;DHT22;315;48.738;9.126;2023-01-16T01:13:41;2.90;99.90
666;DHT22;315;48.738;9.126;2023-01-16T01:16:07;2.90;99.90
666;DHT22;315;48.738;9.126;2023-01-16T01:18:32;2.90;99.90
666;DHT22;315;48.738;9.126;2023-01-16T01:20:58;2.90;99.90
666;DHT22;315;48.738;9.126;2023-01-16T01:23:24;2.90;99.90
666;DHT22;315;48.738;9.126;2023-01-16T01:25:49;2.90;99.90
666;DHT22;315;48.738;9.126;2023-01-16T01:28:15;2.90;99.90
666;DHT22;315;48.738;9.126;2023-01-16T01:30:41;2.90;99.90
666;DHT22;315;48.738;9.126;2023-01-16T01:33:06;2.90;99.90
666;DHT22;315;48.738;9.126;2023-01-16T01:35:34;2.90;99.90
666;DHT22;315;48.738;9.126;2023-01-16T01:37:59;2.90;99.90
666;DHT22;315;48.738;9.126;2023-01-16T01:40:25;2.90;99.90
666;DHT22;315;48.738;9.126;2023-01-16T01:42:50;2.90;99.90
666;DHT22;315;48.738;9.126;2023-01-16T01:45:27;2.90;99.90
666;DHT22;315;48.738;9.126;2023-01-16T01:53:33;2.80;99.90
666;DHT22;315;48.738;9.126;2023-01-16T01:56:27;2.80;99.90
666;DHT22;315;48.738;9.126;2023-01-16T01:58:51;2.70;99.90
666;DHT22;315;48.738;9.126;2023-01-16T02:01:18;2.70;99.90
666;DHT22;315;48.738;9.126;2023-01-16T02:03:56;2.70;99.90
666;DHT22;315;48.738;9.126;2023-01-16T02:06:28;2.70;99.90
666;DHT22;315;48.738;9.126;2023-01-16T02:08:56;2.70;99.90
666;DHT22;315;48.738;9.126;2023-01-16T02:11:34;2.80;99.90
666;DHT22;315;48.738;9.126;2023-01-16T02:14:13;2.80;99.90
666;DHT22;315;48.738;9.126;2023-01-16T02:16:41;2.80;99.90
666;DHT22;315;48.738;9.126;2023-01-16T02:22:42;2.70;99.90
666;DHT22;315;48.738;9.126;2023-01-16T02:44:59;2.70;99.90
666;DHT22;315;48.738;9.126;2023-01-16T02:47:40;2.60;99.90
666;DHT22;315;48.738;9.126;2023-01-16T02:52:45;2.60;99.90
666;DHT22;315;48.738;9.126;2023-01-16T02:55:39;2.60;99.90
666;DHT22;315;48.738;9.126;2023-01-16T02:58:07;2.50;99.90
666;DHT22;315;48.738;9.126;2023-01-16T03:00:35;2.50;99.90
666;DHT22;315;48.738;9.126;2023-01-16T03:03:00;2.50;99.90
666;DHT22;315;48.738;9.126;2023-01-16T03:05:35;2.50;99.90
666;DHT22;315;48.738;9.126;2023-01-16T03:08:19;2.50;99.90
666;DHT22;315;48.738;9.126;2023-01-16T03:11:10;2.40;99.90
666;DHT22;315;48.738;9.126;2023-01-16T03:22:12;2.40;99.90
666;DHT22;315;48.738;9.126;2023-01-16T03:30:26;2.40;99.90
666;DHT22;315;48.738;9.126;2023-01-16T03:32:59;2.40;99.90
666;DHT22;315;48.738;9.126;2023-01-16T03:35:44;2.40;99.90
666;DHT22;315;48.738;9.126;2023-01-16T03:38:12;2.40;99.90
666;DHT22;315;48.738;9.126;2023-01-16T03:40:44;2.40;99.90
666;DHT22;315;48.738;9.126;2023-01-16T03:43:32;2.30;99.90
666;DHT22;315;48.738;9.126;2023-01-16T03:46:03;2.30;99.90
666;DHT22;315;48.738;9.126;2023-01-16T03:49:09;2.30;99.90
666;DHT22;315;48.738;9.126;2023-01-16T03:51:39;2.30;99.90
666;DHT22;315;48.738;9.126;2023-01-16T03:56:55;2.30;99.90
666;DHT22;315;48.738;9.126;2023-01-16T03:59:22;2.30;99.90
666;DHT22;315;48.738;9.126;2023-01-16T04:02:00;2.30;99.90
666;DHT22;315;48.738;9.126;2023-01-16T04:04:51;2.40;99.90
666;DHT22;315;48.738;9.126;2023-01-16T04:07:35;2.40;99.90
666;DHT22;315;48.738;9.126;2023-01-16T04:10:05;2.40;99.90
666;DHT22;315;48.738;9.126;2023-01-16T04:12:44;2.50;99.90
666;DHT22;315;48.738;9.126;2023-01-16T04:15:11;2.50;99.90
666;DHT22;315;48.738;9.126;2023-01-16T04:17:38;2.50;99.90
666;DHT22;315;48.738;9.126;2023-01-16T04:20:05;2.50;99.90
666;DHT22;315;48.738;9.126;2023-01-16T04:22:32;2.50;99.90
666;DHT22;315;48.738;9.126;2023-01-16T04:24:59;2.50;99.90
666;DHT22;315;48.738;9.126;2023-01-16T04:27:25;2.50;99.90
666;DHT22;315;48.738;9.126;2023-01-16T04:29:51;2.40;99.90
666;DHT22;315;48.738;9.126;2023-01-16T04:32:17;2.40;99.90
666;DHT22;315;48.738;9.126;2023-01-16T04:34:42;2.30;99.90
666;DHT22;315;48.738;9.126;2023-01-16T04:37:12;2.30;99.90
666;DHT22;315;48.738;9.126;2023-01-16T04:39:37;2.30;99.90
666;DHT22;315;48.738;9.126;2023-01-16T04:42:03;2.20;99.90
666;DHT22;315;48.738;9.126;2023-01-16T04:44:29;2.30;99.90
666;DHT22;315;48.738;9.126;2023-01-16T04:46:54;2.20;99.90
666;DHT22;315;48.738;9.126;2023-01-16T04:49:20;2.20;99.90
666;DHT22;315;48.738;9.126;2023-01-16T04:51:45;2.20;99.90
666;DHT22;315;48.738;9.126;2023-01-16T04:54:14;2.20;99.90
666;DHT22;315;48.738;9.126;2023-01-16T04:56:40;2.20;99.90
666;DHT22;315;48.738;9.126;2023-01-16T04:59:07;2.20;99.90
666;DHT22;315;48.738;9.126;2023-01-16T05:01:33;2.20;99.90
666;DHT22;315;48.738;9.126;2023-01-16T05:04:01;2.30;99.90
666;DHT22;315;48.738;9.126;2023-01-16T05:06:27;2.30;99.90
666;DHT22;315;48.738;9.126;2023-01-16T05:08:52;2.40;99.90
666;DHT22;315;48.738;9.126;2023-01-16T05:11:18;2.40;99.90
666;DHT22;315;48.738;9.126;2023-01-16T05:13:43;2.40;99.90
666;DHT22;315;48.738;9.126;2023-01-16T05:16:09;2.40;99.90
666;DHT22;315;48.738;9.126;2023-01-16T05:18:34;2.50;99.90
666;DHT22;315;48.738;9.126;2023-01-16T05:21:00;2.50;99.90
666;DHT22;315;48.738;9.126;2023-01-16T05:23:26;2.50;99.90
666;DHT22;315;48.738;9.126;2023-01-16T05:25:52;2.60;99.90
666;DHT22;315;48.738;9.126;2023-01-16T05:28:19;2.50;99.90
666;DHT22;315;48.738;9.126;2023-01-16T05:30:47;2.50;99.90
666;DHT22;315;48.738;9.126;2023-01-16T05:33:13;2.50;99.90
666;DHT22;315;48.738;9.126;2023-01-16T05:35:38;2.60;99.90
666;DHT22;315;48.738;9.126;2023-01-16T05:38:04;2.60;99.90
666;DHT22;315;48.738;9.126;2023-01-16T05:40:30;2.70;99.90
666;DHT22;315;48.738;9.126;2023-01-16T05:42:55;2.70;99.90
666;DHT22;315;48.738;9.126;2023-01-16T05:45:20;2.70;99.90
666;DHT22;315;48.738;9.126;2023-01-16T05:47:46;2.70;99.90
666;DHT22;315;48.738;9.126;2023-01-16T05:50:11;2.80;99.90
666;DHT22;315;48.738;9.126;2023-01-16T05:52:37;2.80;99.90
666;DHT22;315;48.738;9.126;2023-01-16T05:55:03;2.90;99.90
666;DHT22;315;48.738;9.126;2023-01-16T05:57:29;2.80;99.90
666;DHT22;315;48.738;9.126;2023-01-16T05:59:55;2.90;99.90
666;DHT22;315;48.738;9.126;2023-01-16T06:02:21;2.90;99.90
666;DHT22;315;48.738;9.126;2023-01-16T06:04:47;3.00;99.90
666;DHT22;315;48.738;9.126;2023-01-16T06:07:13;3.00;99.90
666;DHT22;315;48.738;9.126;2023-01-16T06:09:39;3.00;99.90
666;DHT22;315;48.738;9.126;2023-01-16T06:12:05;3.00;99.90
666;DHT22;315;48.738;9.126;2023-01-16T06:14:33;3.00;99.90
666;DHT22;315;48.738;9.126;2023-01-16T06:16:58;3.00;99.90
666;DHT22;315;48.738;9.126;2023-01-16T06:19:24;2.90;99.90
666;DHT22;315;48.738;9.126;2023-01-16T06:21:49;2.90;99.90
666;DHT22;315;48.738;9.126;2023-01-16T06:24:15;2.90;99.90
666;DHT22;315;48.738;9.126;2023-01-16T06:26:40;2.90;99.90
666;DHT22;315;48.738;9.126;2023-01-16T06:29:06;2.90;99.90
666;DHT22;315;48.738;9.126;2023-01-16T06:31:31;2.80;99.90
666;DHT22;315;48.738;9.126;2023-01-16T06:33:57;2.80;99.90
666;DHT22;315;48.738;9.126;2023-01-16T06:36:23;2.80;99.90
666;DHT22;315;48.738;9.126;2023-01-16T06:38:48;2.70;99.90
666;DHT22;315;48.738;9.126;2023-01-16T06:41:14;2.70;99.90
666;DHT22;315;48.738;9.126;2023-01-16T06:43:40;2.60;99.90
666;DHT22;315;48.738;9.126;2023-01-16T06:46:05;2.50;99.90
666;DHT22;315;48.738;9.126;2023-01-16T06:48:31;2.50;99.90
666;DHT22;315;48.738;9.126;2023-01-16T06:50:57;2.50;99.90
666;DHT22;315;48.738;9.126;2023-01-16T06:53:24;2.40;99.90
666;DHT22;315;48.738;9.126;2023-01-16T06:55:50;2.40;99.90
666;DHT22;315;48.738;9.126;2023-01-16T06:58:15;2.40;99.90
666;DHT22;315;48.738;9.126;2023-01-16T07:00:41;2.40;99.90
666;DHT22;315;48.738;9.126;2023-01-16T07:03:06;2.40;99.90
666;DHT22;315;48.738;9.126;2023-01-16T07:05:32;2.40;99.90
666;DHT22;315;48.738;9.126;2023-01-16T07:07:57;2.40;99.90
666;DHT22;315;48.738;9.126;2023-01-16T07:10:24;2.50;99.90
666;DHT22;315;48.738;9.126;2023-01-16T07:12:51;2.50;99.90
666;DHT22;315;48.738;9.126;2023-01-16T07:15:18;2.40;99.90
666;DHT22;315;48.738;9.126;2023-01-16T07:18:04;2.50;99.90
666;DHT22;315;48.738;9.126;2023-01-16T07:20:52;2.50;99.90
666;DHT22;315;48.738;9.126;2023-01-16T07:23:39;2.50;99.90
666;DHT22;315;48.738;9.126;2023-01-16T07:26:06;2.50;99.90
666;DHT22;315;48.738;9.126;2023-01-16T07:28:33;2.40;99.90
666;DHT22;315;48.738;9.126;2023-01-16T07:31:00;2.50;99.90
666;DHT22;315;48.738;9.126;2023-01-16T07:33:29;2.50;99.90
666;DHT22;315;48.738;9.126;2023-01-16T07:35:55;2.50;99.90
666;DHT22;315;48.738;9.126;2023-01-16T07:38:20;2.50;99.90
666;DHT22;315;48.738;9.126;2023-01-16T07:40:46;2.50;99.90
666;DHT22;315;48.738;9.126;2023-01-16T07:43:11;2.60;99.90
666;DHT22;315;48.738;9.126;2023-01-16T07:45:37;2.60;99.90
666;DHT22;315;48.738;9.126;2023-01-16T07:48:02;2.60;99.90
666;DHT22;315;48.738;9.126;2023-01-16T07:50:28;2.60;99.90
666;DHT22;315;48.738;9.126;2023-01-16T07:52:54;2.60;99.90
666;DHT22;315;48.738;9.126;2023-01-16T07:55:20;2.60;99.90
666;DHT22;315;48.738;9.126;2023-01-16T07:57:45;2.70;99.90
666;DHT22;315;48.738;9.126;2023-01-16T08:00:11;2.80;99.90
666;DHT22;315;48.738;9.126;2023-01-16T08:02:38;2.90;99.90
666;DHT22;315;48.738;9.126;2023-01-16T08:05:04;2.80;99.90
666;DHT22;315;48.738;9.126;2023-01-16T08:07:30;2.80;99.90
666;DHT22;315;48.738;9.126;2023-01-16T08:09:55;2.80;99.90
666;DHT22;315;48.738;9.126;2023-01-16T08:12:21;2.90;99.90
666;DHT22;315;48.738;9.126;2023-01-16T08:14:46;3.00;99.90
666;DHT22;315;48.738;9.126;2023-01-16T08:17:12;3.00;99.90
666;DHT22;315;48.738;9.126;2023-01-16T08:19:37;3.00;99.90
666;DHT22;315;48.738;9.126;2023-01-16T08:22:03;3.00;99.90
666;DHT22;315;48.738;9.126;2023-01-16T08:24:29;3.00;99.90
666;DHT22;315;48.738;9.126;2023-01-16T08:26:55;3.10;99.90
666;DHT22;315;48.738;9.126;2023-01-16T08:29:21;3.20;99.90
666;DHT22;315;48.738;9.126;2023-01-16T08:31:47;3.20;99.90
666;DHT22;315;48.738;9.126;2023-01-16T08:34:12;3.30;99.90
666;DHT22;315;48.738;9.126;2023-01-16T08:36:38;3.30;99.90
666;DHT22;315;48.738;9.126;2023-01-16T08:39:04;3.30;99.90
666;DHT22;315;48.738;9.126;2023-01-16T08:41:29;3.40;99.90
666;DHT22;315;48.738;9.126;2023-01-16T08:44:13;3.40;99.90
666;DHT22;315;48.738;9.126;2023-01-16T08:47:04;3.40;99.90
666;DHT22;315;48.738;9.126;2023-01-16T08:49:49;3.40;99.90
666;DHT22;315;48.738;9.126;2023-01-16T08:52:35;3.50;99.90
666;DHT22;315;48.738;9.126;2023-01-16T08:55:02;3.50;99.90
666;DHT22;315;48.738;9.126;2023-01-16T08:57:28;3.60;99.90
666;DHT22;315;48.738;9.126;2023-01-16T08:59:55;3.60;99.90
666;DHT22;315;48.738;9.126;2023-01-16T09:02:20;3.60;99.90
666;DHT22;315;48.738;9.126;2023-01-16T09:04:46;3.60;99.90
666;DHT22;315;48.738;9.126;2023-01-16T09:07:13;3.70;99.90
666;DHT22;315;48.738;9.126;2023-01-16T09:09:39;3.70;99.90
666;DHT22;315;48.738;9.126;2023-01-16T09:12:07;3.70;99.90
666;DHT22;315;48.738;9.126;2023-01-16T09:14:52;3.80;99.90
666;DHT22;315;48.738;9.126;2023-01-16T09:17:20;3.80;99.90
666;DHT22;315;48.738;9.126;2023-01-16T09:19:45;3.80;99.90
666;DHT22;315;48.738;9.126;2023-01-16T09:22:11;3.80;99.90
666;DHT22;315;48.738;9.126;2023-01-16T09:24:36;3.80;99.90
666;DHT22;315;48.738;9.126;2023-01-16T09:27:03;3.80;99.90
666;DHT22;315;48.738;9.126;2023-01-16T09:29:28;3.80;99.90
666;DHT22;315;48.738;9.126;2023-01-16T09:31:54;3.80;99.90
666;DHT22;315;48.738;9.126;2023-01-16T09:34:19;3.80;99.90
666;DHT22;315;48.738;9.126;2023-01-16T09:36:45;3.90;99.90
666;DHT22;315;48.738;9.126;2023-01-16T09:39:10;3.90;99.90
666;DHT22;315;48.738;9.126;2023-01-16T09:44:49;3.90;99.90
666;DHT22;315;48.738;9.126;2023-01-16T09:47:16;4.00;99.90
666;DHT22;315;48.738;9.126;2023-01-16T09:49:53;4.10;99.90
666;DHT22;315;48.738;9.126;2023-01-16T09:52:24;4.20;99.90
666;DHT22;315;48.738;9.126;2023-01-16T09:55:21;4.10;99.90
666;DHT22;315;48.738;9.126;2023-01-16T09:58:13;4.20;99.90
666;DHT22;315;48.738;9.126;2023-01-16T10:00:58;4.20;99.90
666;DHT22;315;48.738;9.126;2023-01-16T10:03:24;4.20;99.90
666;DHT22;315;48.738;9.126;2023-01-16T10:06:02;4.20;99.90
666;DHT22;315;48.738;9.126;2023-01-16T10:11:30;4.20;99.90
666;DHT22;315;48.738;9.126;2023-01-16T10:17:01;4.20;99.90
666;DHT22;315;48.738;9.126;2023-01-16T10:27:48;4.40;99.90
666;DHT22;315;48.738;9.126;2023-01-16T10:30:20;4.40;99.90
666;DHT22;315;48.738;9.126;2023-01-16T10:32:59;4.50;99.90
666;DHT22;315;48.738;9.126;2023-01-16T10:35:31;4.50;99.90
666;DHT22;315;48.738;9.126;2023-01-16T10:38:11;4.60;99.90
666;DHT22;315;48.738;9.126;2023-01-16T10:40:41;4.70;99.90
666;DHT22;315;48.738;9.126;2023-01-16T10:43:14;4.70;99.90
666;DHT22;315;48.738;9.126;2023-01-16T10:46:19;4.80;99.90
666;DHT22;315;48.738;9.126;2023-01-16T10:49:03;5.00;99.90
666;DHT22;315;48.738;9.126;2023-01-16T10:51:47;5.00;99.90
666;DHT22;315;48.738;9.126;2023-01-16T10:54:13;5.10;99.90
666;DHT22;315;48.738;9.126;2023-01-16T10:56:39;5.20;99.90
666;DHT22;315;48.738;9.126;2023-01-16T10:59:08;5.20;99.90
666;DHT22;315;48.738;9.126;2023-01-16T11:01:36;5.20;99.90
666;DHT22;315;48.738;9.126;2023-01-16T11:04:04;5.30;99.90
666;DHT22;315;48.738;9.126;2023-01-16T11:06:30;5.30;99.90
666;DHT22;315;48.738;9.126;2023-01-16T11:09:15;5.30;99.90
666;DHT22;315;48.738;9.126;2023-01-16T11:11:42;5.30;99.90
666;DHT22;315;48.738;9.126;2023-01-16T11:14:30;5.30;99.90
666;DHT22;315;48.738;9.126;2023-01-16T11:17:25;5.30;99.90
666;DHT22;315;48.738;9.126;2023-01-16T11:20:21;5.40;99.90
666;DHT22;315;48.738;9.126;2023-01-16T11:25:23;5.50;99.90
666;DHT22;315;48.738;9.126;2023-01-16T11:27:51;5.60;99.90
666;DHT22;315;48.738;9.126;2023-01-16T11:30:21;5.60;99.90
666;DHT22;315;48.738;9.126;2023-01-16T11:32:53;5.50;99.90
666;DHT22;315;48.738;9.126;2023-01-16T11:35:20;5.50;99.90
666;DHT22;315;48.738;9.126;2023-01-16T11:37:51;5.50;99.90
666;DHT22;315;48.738;9.126;2023-01-16T11:40:20;5.50;99.90
666;DHT22;315;48.738;9.126;2023-01-16T11:42:58;5.50;99.90
666;DHT22;315;48.738;9.126;2023-01-16T11:45:47;5.50;99.90
666;DHT22;315;48.738;9.126;2023-01-16T11:48:40;5.50;99.90
666;DHT22;315;48.738;9.126;2023-01-16T11:51:08;5.60;99.90
666;DHT22;315;48.738;9.126;2023-01-16T11:53:37;5.60;99.90
666;DHT22;315;48.738;9.126;2023-01-16T12:04:29;5.70;99.90
666;DHT22;315;48.738;9.126;2023-01-16T12:07:14;5.70;99.90
666;DHT22;315;48.738;9.126;2023-01-16T12:12:31;5.80;99.90
666;DHT22;315;48.738;9.126;2023-01-16T12:15:25;6.10;99.90
666;DHT22;315;48.738;9.126;2023-01-16T12:18:27;6.20;99.90
666;DHT22;315;48.738;9.126;2023-01-16T12:21:01;6.10;99.90
666;DHT22;315;48.738;9.126;2023-01-16T12:23:50;5.90;99.90
666;DHT22;315;48.738;9.126;2023-01-16T12:26:22;6.00;99.90
666;DHT22;315;48.738;9.126;2023-01-16T12:34:49;6.10;99.90
666;DHT22;315;48.738;9.126;2023-01-16T12:43:28;6.20;99.90
666;DHT22;315;48.738;9.126;2023-01-16T12:45:59;6.30;99.90
666;DHT22;315;48.738;9.126;2023-01-16T12:48:42;6.40;99.90
666;DHT22;315;48.738;9.126;2023-01-16T12:51:26;6.50;99.90
666;DHT22;315;48.738;9.126;2023-01-16T12:54:26;6.80;99.90
666;DHT22;315;48.738;9.126;2023-01-16T12:59:45;6.60;99.90
666;DHT22;315;48.738;9.126;2023-01-16T13:04:55;6.60;99.90
666;DHT22;315;48.738;9.126;2023-01-16T13:07:27;6.60;99.90
666;DHT22;315;48.738;9.126;2023-01-16T13:13:25;6.80;99.90
666;DHT22;315;48.738;9.126;2023-01-16T13:16:09;6.90;99.90
666;DHT22;315;48.738;9.126;2023-01-16T13:18:58;6.90;99.90
666;DHT22;315;48.738;9.126;2023-01-16T13:21:28;7.10;99.90
666;DHT22;315;48.738;9.126;2023-01-16T13:24:08;7.30;99.90
666;DHT22;315;48.738;9.126;2023-01-16T13:26:35;7.80;99.90
666;DHT22;315;48.738;9.126;2023-01-16T13:31:44;8.90;99.90
666;DHT22;315;48.738;9.126;2023-01-16T13:34:32;8.80;99.90
666;DHT22;315;48.738;9.126;2023-01-16T13:37:34;9.40;99.90
666;DHT22;315;48.738;9.126;2023-01-16T13:43:11;11.00;99.90
666;DHT22;315;48.738;9.126;2023-01-16T13:45:59;10.20;99.90
666;DHT22;315;48.738;9.126;2023-01-16T13:48:31;9.40;99.90
666;DHT22;315;48.738;9.126;2023-01-16T13:53:38;8.40;99.90
666;DHT22;315;48.738;9.126;2023-01-16T13:56:15;8.20;99.90
666;DHT22;315;48.738;9.126;2023-01-16T13:58:46;7.80;99.90
666;DHT22;315;48.738;9.126;2023-01-16T14:09:20;7.30;99.90
666;DHT22;315;48.738;9.126;2023-01-16T14:18:21;7.20;99.90
666;DHT22;315;48.738;9.126;2023-01-16T14:21:05;7.20;99.90
666;DHT22;315;48.738;9.126;2023-01-16T14:23:36;7.00;99.90
666;DHT22;315;48.738;9.126;2023-01-16T14:26:51;6.90;99.90
666;DHT22;315;48.738;9.126;2023-01-16T14:32:46;7.20;99.90
666;DHT22;315;48.738;9.126;2023-01-16T14:35:24;6.40;99.90
666;DHT22;315;48.738;9.126;2023-01-16T14:37:58;6.40;99.90
666;DHT22;315;48.738;9.126;2023-01-16T14:40:27;6.30;99.90
666;DHT22;315;48.738;9.126;2023-01-16T14:43:25;6.30;99.90
666;DHT22;315;48.738;9.126;2023-01-16T14:46:23;6.20;99.90
666;DHT22;315;48.738;9.126;2023-01-16T14:52:45;6.20;99.90
666;DHT22;315;48.738;9.126;2023-01-16T14:55:50;6.20;99.90
666;DHT22;315;48.738;9.126;2023-01-16T15:01:14;6.10;99.90
666;DHT22;315;48.738;9.126;2023-01-16T15:04:02;6.10;99.90
666;DHT22;315;48.738;9.126;2023-01-16T15:06:35;6.00;99.90
666;DHT22;315;48.738;9.126;2023-01-16T15:09:03;6.00;99.90
666;DHT22;315;48.738;9.126;2023-01-16T15:11:31;5.90;99.90
666;DHT22;315;48.738;9.126;2023-01-16T15:14:14;5.90;99.90
666;DHT22;315;48.738;9.126;2023-01-16T15:23:55;5.90;99.90
666;DHT22;315;48.738;9.126;2023-01-16T15:26:20;6.00;99.90
666;DHT22;315;48.738;9.126;2023-01-16T15:29:00;6.00;99.90
666;DHT22;315;48.738;9.126;2023-01-16T15:31:33;6.10;99.90
666;DHT22;315;48.738;9.126;2023-01-16T15:36:42;6.00;99.90
666;DHT22;315;48.738;9.126;2023-01-16T15:39:30;5.90;99.90
666;DHT22;315;48.738;9.126;2023-01-16T15:44:53;5.50;99.90
666;DHT22;315;48.738;9.126;2023-01-16T15:47:43;5.30;99.90
666;DHT22;315;48.738;9.126;2023-01-16T15:52:38;5.10;99.90
666;DHT22;315;48.738;9.126;2023-01-16T15:55:18;5.00;99.90
666;DHT22;315;48.738;9.126;2023-01-16T15:57:48;5.00;99.90
666;DHT22;315;48.738;9.126;2023-01-16T16:00:30;4.80;99.90
666;DHT22;315;48.738;9.126;2023-01-16T16:03:09;4.80;99.90
666;DHT22;315;48.738;9.126;2023-01-16T16:05:36;4.80;99.90
666;DHT22;315;48.738;9.126;2023-01-16T16:08:03;4.80;99.90
666;DHT22;315;48.738;9.126;2023-01-16T16:10:33;4.70;99.90
666;DHT22;315;48.738;9.126;2023-01-16T16:13:18;4.70;99.90
666;DHT22;315;48.738;9.126;2023-01-16T16:15:55;4.60;99.90
666;DHT22;315;48.738;9.126;2023-01-16T16:18:55;4.60;99.90
666;DHT22;315;48.738;9.126;2023-01-16T16:21:21;4.50;99.90
666;DHT22;315;48.738;9.126;2023-01-16T16:23:55;4.40;99.90
666;DHT22;315;48.738;9.126;2023-01-16T16:26:21;4.40;99.90
666;DHT22;315;48.738;9.126;2023-01-16T16:28:47;4.40;99.90
666;DHT22;315;48.738;9.126;2023-01-16T16:31:16;4.40;99.90
666;DHT22;315;48.738;9.126;2023-01-16T16:34:15;4.40;99.90
666;DHT22;315;48.738;9.126;2023-01-16T16:36:47;4.30;99.90
666;DHT22;315;48.738;9.126;2023-01-16T16:39:36;4.30;99.90
666;DHT22;315;48.738;9.126;2023-01-16T16:49:59;4.20;99.90
666;DHT22;315;48.738;9.126;2023-01-16T16:52:36;4.10;99.90
666;DHT22;315;48.738;9.126;2023-01-16T16:55:27;4.30;99.90
666;DHT22;315;48.738;9.126;2023-01-16T16:58:00;4.00;99.90
666;DHT22;315;48.738;9.126;2023-01-16T17:00:28;4.00;99.90
666;DHT22;315;48.738;9.126;2023-01-16T17:03:06;4.00;99.90
666;DHT22;315;48.738;9.126;2023-01-16T17:05:35;3.90;99.90
666;DHT22;315;48.738;9.126;2023-01-16T17:08:01;3.90;99.90
666;DHT22;315;48.738;9.126;2023-01-16T17:10:26;3.90;99.90
666;DHT22;315;48.738;9.126;2023-01-16T17:12:52;3.90;99.90
666;DHT22;315;48.738;9.126;2023-01-16T17:15:19;3.90;99.90
666;DHT22;315;48.738;9.126;2023-01-16T17:17:44;3.90;99.90
666;DHT22;315;48.738;9.126;2023-01-16T17:20:19;3.80;99.90
666;DHT22;315;48.738;9.126;2023-01-16T17:22:45;3.80;99.90
666;DHT22;315;48.738;9.126;2023-01-16T17:25:12;3.70;99.90
666;DHT22;315;48.738;9.126;2023-01-16T17:27:46;3.80;99.90
666;DHT22;315;48.738;9.126;2023-01-16T17:30:13;3.80;99.90
666;DHT22;315;48.738;9.126;2023-01-16T17:32:39;3.70;99.90
666;DHT22;315;48.738;9.126;2023-01-16T17:35:12;3.70;99.90
666;DHT22;315;48.738;9.126;2023-01-16T17:37:38;3.70;99.90
666;DHT22;315;48.738;9.126;2023-01-16T17:40:04;3.70;99.90
666;DHT22;315;48.738;9.126;2023-01-16T17:42:30;3.70;99.90
666;DHT22;315;48.738;9.126;2023-01-16T17:45:30;3.70;99.90
666;DHT22;315;48.738;9.126;2023-01-16T17:48:18;3.70;99.90
666;DHT22;315;48.738;9.126;2023-01-16T17:50:44;3.50;99.90
666;DHT22;315;48.738;9.126;2023-01-16T17:53:11;3.70;99.90
666;DHT22;315;48.738;9.126;2023-01-16T17:55:37;3.70;99.90
666;DHT22;315;48.738;9.126;2023-01-16T17:58:16;3.70;99.90
666;DHT22;315;48.738;9.126;2023-01-16T18:00:43;3.70;99.90
666;DHT22;315;48.738;9.126;2023-01-16T18:03:09;3.70;99.90
666;DHT22;315;48.738;9.126;2023-01-16T18:05:35;3.70;99.90
666;DHT22;315;48.738;9.126;2023-01-16T18:08:02;3.70;99.90
666;DHT22;315;48.738;9.126;2023-01-16T18:10:28;3.70;99.90
666;DHT22;315;48.738;9.126;2023-01-16T18:12:53;3.70;99.90
666;DHT22;315;48.738;9.126;2023-01-16T18:15:37;3.70;99.90
666;DHT22;315;48.738;9.126;2023-01-16T18:18:21;3.90;99.90
666;DHT22;315;48.738;9.126;2023-01-16T18:20:47;3.70;99.90
666;DHT22;315;48.738;9.126;2023-01-16T18:23:32;3.70;99.90
666;DHT22;315;48.738;9.126;2023-01-16T18:25:58;3.70;99.90
666;DHT22;315;48.738;9.126;2023-01-16T18:28:23;3.70;99.90
666;DHT22;315;48.738;9.126;2023-01-16T18:30:49;3.60;99.90
666;DHT22;315;48.738;9.126;2023-01-16T18:33:14;3.60;99.90
666;DHT22;315;48.738;9.126;2023-01-16T18:35:40;3.70;99.90
666;DHT22;315;48.738;9.126;2023-01-16T18:38:05;3.60;99.90
666;DHT22;315;48.738;9.126;2023-01-16T18:40:49;3.60;99.90
666;DHT22;315;48.738;9.126;2023-01-16T18:43:33;3.60;99.90
666;DHT22;315;48.738;9.126;2023-01-16T18:46:17;3.60;99.90
666;DHT22;315;48.738;9.126;2023-01-16T18:49:01;3.50;99.90
666;DHT22;315;48.738;9.126;2023-01-16T18:51:47;3.50;99.90
666;DHT22;315;48.738;9.126;2023-01-16T18:54:32;3.60;99.90
666;DHT22;315;48.738;9.126;2023-01-16T18:57:17;3.60;99.90
666;DHT22;315;48.738;9.126;2023-01-16T19:00:13;3.60;99.90
666;DHT22;315;48.738;9.126;2023-01-16T19:02:58;3.60;99.90
666;DHT22;315;48.738;9.126;2023-01-16T19:05:24;3.60;99.90
666;DHT22;315;48.738;9.126;2023-01-16T19:07:52;3.60;99.90
666;DHT22;315;48.738;9.126;2023-01-16T19:10:28;3.60;99.90
666;DHT22;315;48.738;9.126;2023-01-16T19:13:00;3.60;99.90
666;DHT22;315;48.738;9.126;2023-01-16T19:15:28;3.50;99.90
666;DHT22;315;48.738;9.126;2023-01-16T19:17:54;3.50;99.90
666;DHT22;315;48.738;9.126;2023-01-16T19:20:21;3.50;99.90
666;DHT22;315;48.738;9.126;2023-01-16T19:22:50;3.50;99.90
666;DHT22;315;48.738;9.126;2023-01-16T19:25:17;3.50;99.90
666;DHT22;315;48.738;9.126;2023-01-16T19:27:42;3.50;99.90
666;DHT22;315;48.738;9.126;2023-01-16T19:30:08;3.50;99.90
666;DHT22;315;48.738;9.126;2023-01-16T19:32:34;3.50;99.90
666;DHT22;315;48.738;9.126;2023-01-16T19:35:00;3.50;99.90
666;DHT22;315;48.738;9.126;2023-01-16T19:37:25;3.50;99.90
666;DHT22;315;48.738;9.126;2023-01-16T19:39:51;3.40;99.90
666;DHT22;315;48.738;9.126;2023-01-16T19:42:16;3.40;99.90
666;DHT22;315;48.738;9.126;2023-01-16T19:45:01;3.40;99.90
666;DHT22;315;48.738;9.126;2023-01-16T19:47:44;3.40;99.90
666;DHT22;315;48.738;9.126;2023-01-16T19:50:10;3.40;99.90
666;DHT22;315;48.738;9.126;2023-01-16T19:52:36;3.30;99.90
666;DHT22;315;48.738;9.126;2023-01-16T19:55:01;3.30;99.90
666;DHT22;315;48.738;9.126;2023-01-16T19:57:27;3.40;99.90